EGUB - Benson
Distance from station: E 5mi, 14km
Updated: 02/21/2018 10:50am
Haze, Mostly cloudy
Haze, Mostly cloudy
 Wind from N
Wind: N 3 mph , 6 km/h
Temperature: 39°F , 4°C
Dew Point: 37°F , 3°C
Humidity: 93%
Barometer: 30.3 inHg , 1026 hPa
Summary: Haze
Clouds: Mostly Cloudy
Visibility: 3 miles , 5 km
Cloud details: Mostly Cloudy 4000 ft
2018/02/21 18:50 EGUB 211850Z 01003KT 4500 HZ BKN040 04/03 Q1026 GRN TEMPO SCT020 WHT